Terminal Aerodrome Forecast
Issued by NWS

Home | Current Version | Previous Version | Text Only | Print | Product List | Glossary On
Versions: 1 2 3 4 5 6 7 8 9 10 11 12 13 14 15
571
FTUS42 KMLB 230535
TAFSFB
TAF
KSFB 230535Z 2306/2406 02006KT P6SM SCT025 BKN060
     FM230900 03007KT P6SM SCT025 BKN060
      TEMPO 2309/2313 BKN025
     FM231300 07012KT P6SM VCSH BKN035
     FM231500 07016G25KT P6SM VCSH BKN035
      TEMPO 2315/2319 5SM SHRA BKN025
     FM240000 06010KT P6SM SCT035 BKN080
     FM240300 05008KT P6SM SCT030=

USA.gov is the U.S. government's official web portal to all federal, state and local government web resources and services.